B51 EFHK-EFJY
Flight info
| Callsign | B51 |
|---|---|
| Flight time | 0h 38m |
| Altitude | 8500 |
| Route | ROQQA RUOKE |
| Aircraft | HAWK/M-SDGIRY/C |
Departure
| Time | 2026-04-16 10:42 |
|---|---|
| Airport | Helsinki Vantaa Airport (EFHK) |
Arrival
| Time | 2026-04-16 11:21 |
|---|---|
| Airport | Jyväskylä Airport (EFJY) |
| Time | Latitude | Longitude | Altitude | Speed | Heading |
|---|---|---|---|---|---|
| 2026-04-16 10:30 | 60.31538 | 24.93206 | 164 ft | 0 kts | 317° |
| 2026-04-16 10:37 | 60.31550 | 24.93184 | 164 ft | 5 kts | 318° |
| 2026-04-16 10:37 | 60.31545 | 24.93143 | 163 ft | 7 kts | 221° |
| 2026-04-16 10:37 | 60.31497 | 24.93111 | 164 ft | 7 kts | 178° |
| 2026-04-16 10:37 | 60.31456 | 24.93105 | 144 ft | 5 kts | 213° |
| 2026-04-16 10:38 | 60.31431 | 24.93055 | 161 ft | 0 kts | 227° |
| 2026-04-16 10:38 | 60.31429 | 24.93051 | 161 ft | 0 kts | 227° |
| 2026-04-16 10:39 | 60.31429 | 24.93049 | 161 ft | 1 kts | 228° |
| 2026-04-16 10:39 | 60.31413 | 24.93017 | 160 ft | 5 kts | 225° |
| 2026-04-16 10:39 | 60.31387 | 24.92994 | 160 ft | 5 kts | 159° |
| 2026-04-16 10:39 | 60.31355 | 24.93049 | 159 ft | 7 kts | 137° |
| 2026-04-16 10:40 | 60.31313 | 24.93127 | 158 ft | 8 kts | 138° |
| 2026-04-16 10:40 | 60.31276 | 24.93195 | 158 ft | 6 kts | 137° |
| 2026-04-16 10:40 | 60.31242 | 24.93259 | 158 ft | 7 kts | 137° |
| 2026-04-16 10:40 | 60.31206 | 24.93326 | 157 ft | 8 kts | 137° |
| 2026-04-16 10:41 | 60.31160 | 24.93410 | 155 ft | 10 kts | 137° |
| 2026-04-16 10:41 | 60.31108 | 24.93506 | 155 ft | 9 kts | 137° |
| 2026-04-16 10:41 | 60.31096 | 24.93563 | 155 ft | 2 kts | 48° |
| 2026-04-16 10:41 | 60.31098 | 24.93568 | 155 ft | 0 kts | 47° |
| 2026-04-16 10:42 | 60.31203 | 24.93793 | 155 ft | 62 kts | 47° |
| 2026-04-16 10:42 | 60.31686 | 24.94871 | 184 ft | 143 kts | 45° |
| 2026-04-16 10:42 | 60.32515 | 24.96677 | 580 ft | 204 kts | 47° |
| 2026-04-16 10:42 | 60.33304 | 24.99320 | 869 ft | 248 kts | 80° |
| 2026-04-16 10:43 | 60.32677 | 25.02605 | 818 ft | 278 kts | 141° |
| 2026-04-16 10:43 | 60.30756 | 25.03174 | 671 ft | 287 kts | 191° |
| 2026-04-16 10:43 | 60.28984 | 25.01692 | 849 ft | 269 kts | 207° |
| 2026-04-16 10:43 | 60.27391 | 24.99862 | 859 ft | 260 kts | 210° |
| 2026-04-16 10:44 | 60.25857 | 24.98038 | 840 ft | 253 kts | 209° |
| 2026-04-16 10:44 | 60.24342 | 24.96221 | 743 ft | 251 kts | 204° |
| 2026-04-16 10:44 | 60.22649 | 24.95962 | 623 ft | 246 kts | 162° |
| 2026-04-16 10:44 | 60.21172 | 24.97516 | 598 ft | 238 kts | 143° |
| 2026-04-16 10:45 | 60.19849 | 24.99355 | 915 ft | 227 kts | 142° |
| 2026-04-16 10:45 | 60.18372 | 25.00239 | 1170 ft | 235 kts | 188° |
| 2026-04-16 10:45 | 60.17087 | 24.98125 | 998 ft | 256 kts | 244° |
| 2026-04-16 10:45 | 60.16552 | 24.94688 | 1149 ft | 258 kts | 255° |
| 2026-04-16 10:46 | 60.16135 | 24.91179 | 1332 ft | 259 kts | 259° |
| 2026-04-16 10:46 | 60.15860 | 24.87589 | 1612 ft | 261 kts | 264° |
| 2026-04-16 10:46 | 60.15684 | 24.83882 | 2275 ft | 274 kts | 265° |
| 2026-04-16 10:46 | 60.15791 | 24.79990 | 2900 ft | 289 kts | 288° |
| 2026-04-16 10:47 | 60.16912 | 24.76644 | 3493 ft | 294 kts | 321° |
| 2026-04-16 10:47 | 60.18500 | 24.74137 | 4225 ft | 293 kts | 325° |
| 2026-04-16 10:47 | 60.20175 | 24.71581 | 4429 ft | 311 kts | 326° |
| 2026-04-16 10:47 | 60.21968 | 24.68966 | 4480 ft | 324 kts | 328° |
| 2026-04-16 10:48 | 60.23872 | 24.66351 | 4522 ft | 337 kts | 329° |
| 2026-04-16 10:48 | 60.25855 | 24.63712 | 4637 ft | 348 kts | 329° |
| 2026-04-16 10:48 | 60.27892 | 24.61004 | 4618 ft | 348 kts | 329° |
| 2026-04-16 10:48 | 60.29892 | 24.58452 | 4600 ft | 330 kts | 338° |
| 2026-04-16 10:49 | 60.32033 | 24.57569 | 4607 ft | 304 kts | 8° |
| 2026-04-16 10:49 | 60.33992 | 24.58541 | 4625 ft | 288 kts | 23° |
| 2026-04-16 10:49 | 60.35840 | 24.59916 | 4613 ft | 278 kts | 25° |
| 2026-04-16 10:49 | 60.37618 | 24.61354 | 4607 ft | 272 kts | 26° |
| 2026-04-16 10:50 | 60.39355 | 24.62799 | 4603 ft | 266 kts | 27° |
| 2026-04-16 10:50 | 60.41051 | 24.64221 | 4606 ft | 262 kts | 27° |
| 2026-04-16 10:50 | 60.42731 | 24.65627 | 4602 ft | 261 kts | 27° |
| 2026-04-16 10:50 | 60.44405 | 24.67031 | 4596 ft | 260 kts | 27° |
| 2026-04-16 10:51 | 60.46068 | 24.68434 | 4589 ft | 258 kts | 27° |
| 2026-04-16 10:51 | 60.47717 | 24.69831 | 4604 ft | 256 kts | 27° |
| 2026-04-16 10:51 | 60.49337 | 24.71183 | 4610 ft | 255 kts | 26° |
| 2026-04-16 10:51 | 60.51018 | 24.72333 | 4609 ft | 255 kts | 22° |
| 2026-04-16 10:52 | 60.52721 | 24.73331 | 4590 ft | 254 kts | 18° |
| 2026-04-16 10:52 | 60.54448 | 24.74121 | 4601 ft | 253 kts | 17° |
| 2026-04-16 10:52 | 60.56178 | 24.74827 | 4610 ft | 252 kts | 16° |
| 2026-04-16 10:52 | 60.57903 | 24.75497 | 4613 ft | 252 kts | 15° |
| 2026-04-16 10:53 | 60.59628 | 24.76153 | 4615 ft | 251 kts | 15° |
| 2026-04-16 10:53 | 60.61346 | 24.76801 | 4623 ft | 251 kts | 15° |
| 2026-04-16 10:53 | 60.63067 | 24.77444 | 4621 ft | 251 kts | 15° |
| 2026-04-16 10:53 | 60.64800 | 24.78092 | 4616 ft | 255 kts | 15° |
| 2026-04-16 10:54 | 60.66571 | 24.78762 | 4625 ft | 262 kts | 15° |
| 2026-04-16 10:54 | 60.68346 | 24.79445 | 4618 ft | 264 kts | 15° |
| 2026-04-16 10:54 | 60.70154 | 24.80144 | 4617 ft | 264 kts | 15° |
| 2026-04-16 10:54 | 60.71963 | 24.80847 | 4613 ft | 264 kts | 15° |
| 2026-04-16 10:55 | 60.73767 | 24.81546 | 4611 ft | 263 kts | 15° |
| 2026-04-16 10:55 | 60.75566 | 24.82245 | 4616 ft | 262 kts | 15° |
| 2026-04-16 10:55 | 60.77362 | 24.82939 | 4620 ft | 262 kts | 15° |
| 2026-04-16 10:55 | 60.79149 | 24.83636 | 4619 ft | 262 kts | 15° |
| 2026-04-16 10:56 | 60.80938 | 24.84334 | 4610 ft | 260 kts | 15° |
| 2026-04-16 10:56 | 60.82710 | 24.85086 | 4061 ft | 262 kts | 18° |
| 2026-04-16 10:56 | 60.84452 | 24.85966 | 3673 ft | 258 kts | 19° |
| 2026-04-16 10:56 | 60.86201 | 24.86876 | 3340 ft | 253 kts | 19° |
| 2026-04-16 10:57 | 60.87890 | 24.87777 | 3007 ft | 249 kts | 21° |
| 2026-04-16 10:57 | 60.88979 | 24.88380 | 3000 ft | 242 kts | 20° |
| 2026-04-16 10:57 | 60.90591 | 24.89264 | 3041 ft | 240 kts | 21° |
| 2026-04-16 10:57 | 60.92232 | 24.90163 | 3048 ft | 247 kts | 20° |
| 2026-04-16 10:58 | 60.93913 | 24.91088 | 3054 ft | 252 kts | 20° |
| 2026-04-16 10:58 | 60.95627 | 24.92022 | 3042 ft | 255 kts | 20° |
| 2026-04-16 10:58 | 60.97322 | 24.92942 | 3038 ft | 255 kts | 20° |
| 2026-04-16 10:58 | 60.99026 | 24.93888 | 3046 ft | 254 kts | 20° |
| 2026-04-16 10:59 | 61.00733 | 24.94817 | 3046 ft | 253 kts | 20° |
| 2026-04-16 10:59 | 61.02430 | 24.95745 | 3041 ft | 252 kts | 20° |
| 2026-04-16 10:59 | 61.04121 | 24.96670 | 3028 ft | 250 kts | 20° |
| 2026-04-16 10:59 | 61.05790 | 24.97590 | 3028 ft | 248 kts | 20° |
| 2026-04-16 11:00 | 61.07457 | 24.98507 | 3036 ft | 248 kts | 20° |
| 2026-04-16 11:00 | 61.09123 | 24.99427 | 3030 ft | 247 kts | 20° |
| 2026-04-16 11:00 | 61.10777 | 25.00343 | 3034 ft | 246 kts | 20° |
| 2026-04-16 11:00 | 61.12424 | 25.01262 | 3019 ft | 244 kts | 20° |
| 2026-04-16 11:01 | 61.14055 | 25.02182 | 3022 ft | 241 kts | 20° |
| 2026-04-16 11:01 | 61.15667 | 25.03091 | 3029 ft | 239 kts | 20° |
| 2026-04-16 11:01 | 61.17298 | 25.04030 | 3043 ft | 247 kts | 20° |
| 2026-04-16 11:01 | 61.18961 | 25.04997 | 3049 ft | 250 kts | 20° |
| 2026-04-16 11:02 | 61.20649 | 25.05983 | 3055 ft | 253 kts | 21° |
| 2026-04-16 11:02 | 61.22330 | 25.06964 | 3051 ft | 254 kts | 20° |
| 2026-04-16 11:02 | 61.24026 | 25.07943 | 3040 ft | 252 kts | 20° |
| 2026-04-16 11:02 | 61.25632 | 25.09228 | 3034 ft | 243 kts | 34° |
| 2026-04-16 11:03 | 61.27056 | 25.11069 | 3057 ft | 240 kts | 38° |
| 2026-04-16 11:03 | 61.28439 | 25.13011 | 3072 ft | 240 kts | 39° |
| 2026-04-16 11:03 | 61.31176 | 25.16996 | 3038 ft | 240 kts | 39° |
| 2026-04-16 11:04 | 61.32531 | 25.19001 | 3033 ft | 237 kts | 39° |
| 2026-04-16 11:04 | 61.33870 | 25.20987 | 3039 ft | 235 kts | 39° |
| 2026-04-16 11:04 | 61.35214 | 25.22990 | 3071 ft | 242 kts | 39° |
| 2026-04-16 11:04 | 61.36595 | 25.25070 | 3057 ft | 246 kts | 40° |
| 2026-04-16 11:05 | 61.37981 | 25.27156 | 3040 ft | 244 kts | 40° |
| 2026-04-16 11:05 | 61.39347 | 25.29225 | 3019 ft | 240 kts | 39° |
| 2026-04-16 11:05 | 61.40664 | 25.31250 | 3035 ft | 237 kts | 39° |
| 2026-04-16 11:05 | 61.41991 | 25.33305 | 3051 ft | 243 kts | 39° |
| 2026-04-16 11:06 | 61.43350 | 25.35417 | 3049 ft | 242 kts | 39° |
| 2026-04-16 11:06 | 61.44696 | 25.37513 | 3055 ft | 241 kts | 40° |
| 2026-04-16 11:06 | 61.46042 | 25.39617 | 3046 ft | 240 kts | 40° |
| 2026-04-16 11:06 | 61.47373 | 25.41693 | 3045 ft | 239 kts | 40° |
| 2026-04-16 11:07 | 61.48728 | 25.43686 | 3055 ft | 239 kts | 35° |
| 2026-04-16 11:07 | 61.50173 | 25.45421 | 3056 ft | 239 kts | 32° |
| 2026-04-16 11:07 | 61.51620 | 25.47035 | 3063 ft | 239 kts | 32° |
| 2026-04-16 11:07 | 61.53124 | 25.48670 | 3070 ft | 247 kts | 32° |
| 2026-04-16 11:08 | 61.54680 | 25.50351 | 3065 ft | 255 kts | 30° |
| 2026-04-16 11:08 | 61.56277 | 25.52090 | 3071 ft | 262 kts | 31° |
| 2026-04-16 11:08 | 61.57907 | 25.53872 | 3073 ft | 266 kts | 31° |
| 2026-04-16 11:08 | 61.59550 | 25.55691 | 3074 ft | 267 kts | 31° |
| 2026-04-16 11:09 | 61.61190 | 25.57508 | 3065 ft | 265 kts | 31° |
| 2026-04-16 11:09 | 61.62816 | 25.59311 | 3046 ft | 262 kts | 31° |
| 2026-04-16 11:09 | 61.64443 | 25.61109 | 2596 ft | 269 kts | 31° |
| 2026-04-16 11:09 | 61.66097 | 25.62931 | 1965 ft | 268 kts | 29° |
| 2026-04-16 11:10 | 61.67735 | 25.64823 | 1288 ft | 269 kts | 31° |
| 2026-04-16 11:10 | 61.69343 | 25.66753 | 941 ft | 258 kts | 30° |
| 2026-04-16 11:10 | 61.70855 | 25.68436 | 968 ft | 238 kts | 28° |
| 2026-04-16 11:10 | 61.72365 | 25.70066 | 980 ft | 249 kts | 28° |
| 2026-04-16 11:11 | 61.73968 | 25.71803 | 1010 ft | 277 kts | 28° |
| 2026-04-16 11:11 | 61.75762 | 25.73767 | 990 ft | 300 kts | 28° |
| 2026-04-16 11:11 | 61.77612 | 25.75761 | 961 ft | 302 kts | 27° |
| 2026-04-16 11:11 | 61.79460 | 25.77766 | 974 ft | 296 kts | 28° |
| 2026-04-16 11:12 | 61.81292 | 25.79752 | 959 ft | 296 kts | 28° |
| 2026-04-16 11:12 | 61.83249 | 25.81141 | 998 ft | 298 kts | 15° |
| 2026-04-16 11:12 | 61.85278 | 25.82105 | 1002 ft | 299 kts | 13° |
| 2026-04-16 11:12 | 61.87313 | 25.82985 | 979 ft | 297 kts | 10° |
| 2026-04-16 11:13 | 61.89339 | 25.82359 | 979 ft | 299 kts | 338° |
| 2026-04-16 11:13 | 61.91166 | 25.80253 | 995 ft | 298 kts | 330° |
| 2026-04-16 11:13 | 61.92928 | 25.77960 | 1002 ft | 297 kts | 331° |
| 2026-04-16 11:13 | 61.94692 | 25.75632 | 1001 ft | 299 kts | 332° |
| 2026-04-16 11:14 | 61.96444 | 25.73344 | 1002 ft | 299 kts | 330° |
| 2026-04-16 11:14 | 61.98194 | 25.70958 | 988 ft | 298 kts | 328° |
| 2026-04-16 11:14 | 61.99912 | 25.68514 | 954 ft | 295 kts | 328° |
| 2026-04-16 11:14 | 62.01620 | 25.66146 | 940 ft | 291 kts | 329° |
| 2026-04-16 11:15 | 62.03369 | 25.64030 | 945 ft | 287 kts | 342° |
| 2026-04-16 11:15 | 62.05313 | 25.63292 | 993 ft | 284 kts | 356° |
| 2026-04-16 11:15 | 62.07284 | 25.62821 | 993 ft | 287 kts | 355° |
| 2026-04-16 11:15 | 62.09283 | 25.62347 | 971 ft | 290 kts | 355° |
| 2026-04-16 11:16 | 62.11287 | 25.61917 | 970 ft | 290 kts | 356° |
| 2026-04-16 11:16 | 62.13298 | 25.61566 | 964 ft | 290 kts | 358° |
| 2026-04-16 11:16 | 62.15303 | 25.61141 | 916 ft | 288 kts | 355° |
| 2026-04-16 11:16 | 62.17308 | 25.60793 | 949 ft | 290 kts | 358° |
| 2026-04-16 11:17 | 62.19219 | 25.60626 | 945 ft | 265 kts | 1° |
| 2026-04-16 11:17 | 62.20991 | 25.60367 | 938 ft | 247 kts | 358° |
| 2026-04-16 11:17 | 62.22665 | 25.60074 | 967 ft | 236 kts | 1° |
| 2026-04-16 11:17 | 62.24280 | 25.60226 | 1001 ft | 232 kts | 6° |
| 2026-04-16 11:18 | 62.25899 | 25.60651 | 1005 ft | 236 kts | 11° |
| 2026-04-16 11:18 | 62.27426 | 25.61873 | 1093 ft | 232 kts | 30° |
| 2026-04-16 11:18 | 62.28834 | 25.63557 | 1207 ft | 232 kts | 29° |
| 2026-04-16 11:18 | 62.30261 | 25.65240 | 1178 ft | 236 kts | 28° |
| 2026-04-16 11:19 | 62.31693 | 25.66953 | 1262 ft | 235 kts | 31° |
| 2026-04-16 11:19 | 62.33077 | 25.68796 | 1284 ft | 236 kts | 36° |
| 2026-04-16 11:19 | 62.34326 | 25.71130 | 1291 ft | 230 kts | 44° |
| 2026-04-16 11:19 | 62.35416 | 25.73400 | 1217 ft | 212 kts | 47° |
| 2026-04-16 11:20 | 62.36475 | 25.75401 | 1198 ft | 198 kts | 20° |
| 2026-04-16 11:20 | 62.37433 | 25.73990 | 1066 ft | 173 kts | 301° |
| 2026-04-16 11:20 | 62.38074 | 25.71977 | 812 ft | 154 kts | 316° |
| 2026-04-16 11:20 | 62.38789 | 25.70382 | 591 ft | 143 kts | 321° |
| 2026-04-16 11:21 | 62.39447 | 25.68923 | 466 ft | 123 kts | 320° |
| 2026-04-16 11:21 | 62.39962 | 25.67799 | 472 ft | 67 kts | 315° |
| 2026-04-16 11:21 | 62.40070 | 25.67465 | 472 ft | 14 kts | 265° |
| 2026-04-16 11:21 | 62.40030 | 25.67332 | 475 ft | 1 kts | 224° |
| 2026-04-16 11:23 | 62.40029 | 25.67331 | 475 ft | 2 kts | 222° |
| 2026-04-16 11:23 | 62.39980 | 25.67205 | 472 ft | 10 kts | 271° |
| 2026-04-16 11:23 | 62.40014 | 25.67108 | 473 ft | 9 kts | 312° |
| 2026-04-16 11:24 | 62.40065 | 25.66990 | 475 ft | 14 kts | 314° |
| 2026-04-16 11:24 | 62.40156 | 25.66783 | 476 ft | 20 kts | 314° |
| 2026-04-16 11:24 | 62.40254 | 25.66565 | 475 ft | 21 kts | 314° |
| 2026-04-16 11:24 | 62.40354 | 25.66341 | 475 ft | 20 kts | 315° |
| 2026-04-16 11:25 | 62.40395 | 25.66167 | 475 ft | 11 kts | 228° |
| 2026-04-16 11:25 | 62.40308 | 25.65982 | 464 ft | 21 kts | 224° |
| 2026-04-16 11:25 | 62.40209 | 25.65775 | 461 ft | 17 kts | 224° |
| 2026-04-16 11:25 | 62.40159 | 25.65673 | 464 ft | 1 kts | 177° |
| 2026-04-16 11:26 | 62.40151 | 25.65716 | 463 ft | 5 kts | 55° |
| 2026-04-16 11:26 | 62.40154 | 25.65725 | 463 ft | 0 kts | 53° |